createdAt,value
2019-03-25T00:00:26.902Z,2.40
2019-03-25T00:01:25.831Z,2.20
2019-03-25T00:02:44.397Z,2.40
2019-03-25T00:03:23.397Z,2.40
2019-03-25T00:04:44.897Z,2.50
2019-03-25T00:05:48.397Z,2.50
2019-03-25T00:06:25.336Z,2.60
2019-03-25T00:07:23.896Z,2.40
2019-03-25T00:08:24.400Z,2.30
2019-03-25T00:09:45.398Z,2.50
2019-03-25T00:10:25.330Z,2.30
2019-03-25T00:11:28.396Z,2.30
2019-03-25T00:12:24.896Z,2.40
2019-03-25T00:13:24.896Z,2.10
2019-03-25T00:14:24.895Z,2.50
2019-03-25T00:15:24.896Z,2.40
2019-03-25T00:16:26.859Z,2.70
2019-03-25T00:17:29.396Z,2.40
2019-03-25T00:18:28.330Z,2.20
2019-03-25T00:19:47.834Z,2.40
2019-03-25T00:20:25.443Z,2.30
2019-03-25T00:21:46.406Z,2.40
2019-03-25T00:24:01.123Z,2.50
2019-03-25T00:26:32.616Z,2.40
2019-03-25T00:27:32.611Z,2.60
2019-03-25T00:28:37.545Z,2.40
2019-03-25T00:29:33.111Z,2.40
2019-03-25T00:30:33.112Z,2.20
2019-03-25T00:31:33.113Z,2.60
2019-03-25T00:32:33.110Z,2.20
2019-03-25T00:33:33.610Z,2.40
2019-03-25T00:34:58.610Z,2.50
2019-03-25T00:35:33.613Z,2.50
2019-03-25T00:36:33.611Z,1.90
2019-03-25T00:37:34.110Z,2.30
2019-03-25T00:38:34.109Z,2.60
2019-03-25T00:39:34.109Z,2.50
2019-03-25T00:42:08.872Z,2.20
2019-03-25T00:43:08.879Z,2.60
2019-03-25T00:44:08.888Z,2.60
2019-03-25T00:45:09.378Z,2.10
2019-03-25T00:46:12.910Z,2.20
2019-03-25T00:47:09.378Z,2.10
2019-03-25T00:48:09.379Z,2.40
2019-03-25T00:49:30.880Z,2.20
2019-03-25T00:50:30.882Z,2.10
2019-03-25T00:51:09.878Z,2.40
2019-03-25T00:52:34.877Z,2.40
2019-03-25T00:53:11.312Z,2.00
2019-03-25T00:54:10.395Z,2.60
2019-03-25T00:55:10.377Z,2.30
2019-03-25T00:56:10.377Z,2.30
2019-03-25T00:57:14.344Z,2.30
2019-03-25T00:58:13.877Z,2.40
2019-03-25T00:59:31.877Z,2.50
2019-03-25T01:00:10.884Z,2.50
2019-03-25T01:01:10.877Z,2.10
2019-03-25T01:02:11.382Z,2.20
2019-03-25T01:03:15.381Z,2.50
2019-03-25T01:04:11.382Z,2.30
2019-03-25T01:05:11.378Z,2.20
2019-03-25T01:07:43.121Z,2.30
2019-03-25T01:08:46.624Z,2.30
2019-03-25T01:09:43.123Z,2.10
2019-03-25T01:10:43.622Z,1.90
2019-03-25T01:11:49.009Z,2.20
2019-03-25T01:12:43.622Z,2.50
2019-03-25T01:13:47.122Z,2.40
2019-03-25T01:14:44.123Z,2.50
2019-03-25T01:15:44.133Z,2.60
2019-03-25T01:16:44.122Z,2.40
2019-03-25T01:17:44.121Z,2.50
2019-03-25T01:18:48.121Z,2.60
2019-03-25T01:19:44.620Z,2.10
2019-03-25T01:20:44.621Z,2.40
2019-03-25T01:21:44.624Z,2.50
2019-03-25T01:22:45.121Z,2.70
2019-03-25T01:23:45.123Z,2.60
2019-03-25T01:24:49.120Z,2.40
2019-03-25T01:25:45.121Z,2.20
2019-03-25T01:26:45.621Z,2.30
2019-03-25T01:27:45.631Z,2.30
2019-03-25T01:28:45.620Z,2.30
2019-03-25T01:30:10.620Z,2.30
2019-03-25T01:30:46.123Z,2.30
2019-03-25T01:31:46.125Z,2.50
2019-03-25T01:32:46.129Z,2.10
2019-03-25T01:33:46.177Z,2.40
2019-03-25T01:34:46.619Z,2.30
2019-03-25T01:35:50.620Z,2.60
2019-03-25T01:36:46.623Z,2.50
2019-03-25T01:37:46.626Z,2.30
2019-03-25T01:38:46.620Z,2.30
2019-03-25T01:40:08.119Z,2.70
2019-03-25T01:40:47.118Z,2.50
2019-03-25T01:41:50.150Z,2.70
2019-03-25T01:42:47.123Z,2.90
2019-03-25T01:43:47.620Z,2.40
2019-03-25T01:44:47.619Z,2.80
2019-03-25T01:45:47.618Z,2.20
2019-03-25T01:46:53.076Z,2.40
2019-03-25T01:48:09.118Z,2.50
2019-03-25T01:48:48.118Z,2.50
2019-03-25T01:50:09.118Z,2.40
2019-03-25T01:50:48.118Z,2.60
2019-03-25T01:52:13.122Z,2.30
2019-03-25T01:52:48.617Z,2.30
2019-03-25T01:54:09.655Z,2.60
2019-03-25T01:54:48.617Z,2.60
2019-03-25T01:55:48.619Z,2.40
2019-03-25T01:56:48.622Z,2.20
2019-03-25T01:57:52.626Z,2.50
2019-03-25T01:58:49.118Z,2.50
2019-03-25T01:59:49.119Z,2.40
2019-03-25T02:00:49.119Z,2.60
2019-03-25T02:02:10.617Z,2.40
2019-03-25T02:02:55.626Z,2.70
2019-03-25T02:03:55.071Z,2.70
2019-03-25T02:04:49.615Z,2.70
2019-03-25T02:05:49.616Z,2.50
2019-03-25T02:08:42.349Z,2.80
2019-03-25T02:10:56.624Z,2.80
2019-03-25T02:11:56.631Z,2.70
2019-03-25T02:12:56.632Z,2.40
2019-03-25T02:14:18.131Z,2.90
2019-03-25T02:15:00.631Z,2.50
2019-03-25T02:15:57.132Z,2.60
2019-03-25T02:16:57.131Z,2.40
2019-03-25T02:17:57.631Z,2.50
2019-03-25T02:18:58.600Z,2.60
2019-03-25T02:20:01.134Z,2.80
2019-03-25T02:20:57.645Z,2.70
2019-03-25T02:21:58.130Z,2.60
2019-03-25T02:22:58.251Z,3.30
2019-03-25T02:23:58.134Z,3.00
2019-03-25T02:25:25.575Z,2.80
2019-03-25T02:25:58.629Z,2.90
2019-03-25T02:26:58.633Z,2.80
2019-03-25T02:27:58.629Z,2.60
2019-03-25T02:29:01.071Z,3.00
2019-03-25T02:30:00.593Z,2.40
2019-03-25T02:32:34.049Z,2.90
2019-03-25T02:33:34.058Z,3.00
2019-03-25T02:34:34.081Z,2.90
2019-03-25T02:35:34.057Z,3.10
2019-03-25T02:36:38.059Z,2.60
2019-03-25T02:37:34.558Z,2.60
2019-03-25T02:38:55.570Z,2.70
2019-03-25T02:39:34.559Z,2.70
2019-03-25T02:40:35.057Z,3.20
2019-03-25T02:41:39.058Z,3.50
2019-03-25T02:42:35.062Z,2.90
2019-03-25T02:43:35.056Z,3.10
2019-03-25T02:44:56.560Z,3.30
2019-03-25T02:45:35.560Z,2.80
2019-03-25T02:46:35.563Z,3.50
2019-03-25T02:47:38.064Z,3.00
2019-03-25T02:48:37.038Z,2.90
2019-03-25T02:49:36.074Z,3.10
2019-03-25T02:50:57.055Z,3.00
2019-03-25T02:51:36.064Z,3.10
2019-03-25T02:52:40.057Z,3.00
2019-03-25T02:53:36.558Z,2.90
2019-03-25T02:54:36.556Z,3.30
2019-03-25T02:55:41.824Z,3.20
2019-03-25T02:58:33.784Z,3.40
2019-03-25T02:59:08.315Z,3.00
2019-03-25T03:00:08.291Z,2.90
2019-03-25T03:01:08.793Z,3.10
2019-03-25T03:02:08.795Z,3.20
2019-03-25T03:03:08.803Z,3.20
2019-03-25T03:04:12.789Z,3.10
2019-03-25T03:05:09.290Z,3.60
2019-03-25T03:06:09.301Z,3.40
2019-03-25T03:07:09.301Z,3.80
2019-03-25T03:08:09.306Z,3.70
2019-03-25T03:09:09.792Z,3.90
2019-03-25T03:11:45.098Z,3.60
2019-03-25T03:12:45.104Z,3.40
2019-03-25T03:13:45.102Z,3.50
2019-03-25T03:14:45.604Z,3.50
2019-03-25T03:15:49.101Z,3.90
2019-03-25T03:16:45.608Z,3.80
2019-03-25T03:17:45.630Z,4.10
2019-03-25T03:18:46.162Z,3.60
2019-03-25T03:19:46.099Z,3.60
2019-03-25T03:20:46.101Z,3.50
2019-03-25T03:21:50.102Z,2.80
2019-03-25T03:22:46.614Z,3.00
2019-03-25T03:23:46.604Z,3.20
2019-03-25T03:24:46.600Z,3.30
2019-03-25T03:25:57.146Z,3.60
2019-03-25T03:26:47.099Z,3.90
2019-03-25T03:27:50.100Z,3.20
2019-03-25T03:28:47.100Z,3.00
2019-03-25T03:29:47.101Z,3.50
2019-03-25T03:30:47.600Z,3.60
2019-03-25T03:31:47.599Z,3.50
2019-03-25T03:32:51.604Z,4.30
2019-03-25T03:33:47.603Z,4.10
2019-03-25T03:34:48.133Z,3.90
2019-03-25T03:35:48.098Z,3.80
2019-03-25T03:36:48.115Z,3.70
2019-03-25T03:37:48.102Z,4.20
2019-03-25T03:38:52.611Z,3.80
2019-03-25T03:40:09.598Z,4.50
2019-03-25T03:40:48.611Z,4.10
2019-03-25T03:42:09.598Z,4.00
2019-03-25T03:42:49.105Z,4.00
2019-03-25T03:43:49.111Z,4.20
2019-03-25T03:46:44.955Z,4.40
2019-03-25T03:47:23.849Z,4.60
2019-03-25T03:48:24.348Z,4.70
2019-03-25T03:49:45.348Z,4.60
2019-03-25T03:50:27.848Z,4.70
2019-03-25T03:51:24.364Z,4.40
2019-03-25T03:52:24.851Z,4.30
2019-03-25T03:53:45.848Z,4.50
2019-03-25T03:54:24.846Z,4.50
2019-03-25T03:55:24.846Z,4.90
2019-03-25T03:56:28.847Z,4.60
2019-03-25T03:57:25.364Z,4.50
2019-03-25T03:58:25.350Z,4.50
2019-03-25T03:59:25.350Z,5.00
2019-03-25T04:00:46.847Z,4.50
2019-03-25T04:01:25.853Z,4.40
2019-03-25T04:02:28.849Z,5.30
2019-03-25T04:03:25.847Z,5.10
2019-03-25T04:04:26.369Z,5.90
2019-03-25T04:05:27.287Z,5.70
2019-03-25T04:06:26.347Z,6.40
2019-03-25T04:07:30.345Z,5.40
2019-03-25T04:08:26.352Z,4.50
2019-03-25T04:09:26.845Z,4.70
2019-03-25T04:10:26.854Z,5.10
2019-03-25T04:11:26.849Z,5.40
2019-03-25T04:12:26.856Z,6.40
2019-03-25T04:13:31.345Z,6.50
2019-03-25T04:14:27.359Z,6.80
2019-03-25T04:15:27.344Z,6.60
2019-03-25T04:16:27.343Z,6.50
2019-03-25T04:17:27.854Z,6.40
2019-03-25T04:18:27.848Z,5.90
2019-03-25T04:19:52.343Z,6.70
2019-03-25T04:20:27.844Z,6.60
2019-03-25T04:21:28.353Z,6.10
2019-03-25T04:22:28.344Z,6.60
2019-03-25T04:23:28.345Z,6.00
2019-03-25T04:24:32.343Z,5.80
2019-03-25T04:25:28.837Z,5.90
2019-03-25T04:26:29.680Z,6.80
2019-03-25T04:27:28.844Z,5.90
2019-03-25T04:28:28.850Z,6.10
2019-03-25T04:29:29.359Z,6.00
2019-03-25T04:30:33.353Z,6.00
2019-03-25T04:31:29.348Z,6.40
2019-03-25T04:32:29.344Z,6.30
2019-03-25T04:33:29.846Z,6.40
2019-03-25T04:34:29.843Z,6.50
2019-03-25T04:35:29.839Z,6.60
2019-03-25T04:36:33.342Z,6.60
2019-03-25T04:37:30.360Z,6.40
2019-03-25T04:38:30.343Z,6.40
2019-03-25T04:39:30.342Z,6.00
2019-03-25T04:40:30.342Z,6.10
2019-03-25T04:41:34.341Z,6.30
2019-03-25T04:42:33.285Z,6.80
2019-03-25T04:43:30.844Z,6.80
2019-03-25T04:44:30.845Z,6.70
2019-03-25T04:45:52.343Z,6.40
2019-03-25T04:46:31.336Z,6.70
2019-03-25T04:47:35.337Z,6.50
2019-03-25T04:48:31.346Z,6.50
2019-03-25T04:49:52.845Z,6.40
2019-03-25T04:50:52.892Z,6.60
2019-03-25T04:51:31.843Z,6.50
2019-03-25T04:52:31.849Z,6.30
2019-03-25T04:53:35.346Z,6.20
2019-03-25T04:54:32.341Z,7.40
2019-03-25T04:55:32.343Z,6.90
2019-03-25T04:56:39.508Z,6.60
2019-03-25T04:57:32.847Z,7.10
2019-03-25T04:58:36.850Z,7.20
2019-03-25T04:59:32.837Z,6.70
2019-03-25T05:00:32.838Z,6.50
2019-03-25T05:03:04.572Z,6.90
2019-03-25T05:04:08.077Z,7.20
2019-03-25T05:05:04.575Z,7.80
2019-03-25T05:07:57.305Z,7.20
2019-03-25T05:08:36.312Z,7.00
2019-03-25T05:10:00.812Z,7.10
2019-03-25T05:10:36.859Z,7.30
2019-03-25T05:11:57.811Z,7.30
2019-03-25T05:12:57.811Z,7.40
2019-03-25T05:13:36.813Z,7.50
2019-03-25T05:14:40.814Z,7.90
2019-03-25T05:15:36.528Z,7.00
2019-03-25T05:16:37.312Z,7.30
2019-03-25T05:17:37.311Z,7.80
2019-03-25T05:20:12.541Z,7.90
2019-03-25T05:21:09.053Z,8.20
2019-03-25T05:22:11.070Z,7.40
2019-03-25T05:23:09.548Z,8.10
2019-03-25T05:24:09.550Z,8.00
2019-03-25T05:25:09.560Z,8.20
2019-03-25T05:26:34.551Z,8.40
2019-03-25T05:27:09.146Z,8.60
2019-03-25T05:28:10.049Z,8.60
2019-03-25T05:29:10.047Z,8.40
2019-03-25T05:30:10.053Z,8.70
2019-03-25T05:31:10.549Z,9.10
2019-03-25T05:32:14.546Z,9.00
2019-03-25T05:33:10.549Z,8.70
2019-03-25T05:34:10.548Z,8.80
2019-03-25T05:35:11.046Z,8.90
2019-03-25T05:36:11.046Z,9.00
2019-03-25T05:37:11.047Z,9.20
2019-03-25T05:38:35.560Z,10.30
2019-03-25T05:39:11.548Z,9.20
2019-03-25T05:40:11.553Z,9.10
2019-03-25T05:41:11.553Z,9.60
2019-03-25T05:42:11.547Z,9.50
2019-03-25T05:43:15.546Z,9.30
2019-03-25T05:44:12.048Z,9.50
2019-03-25T05:45:12.057Z,9.90
2019-03-25T05:46:12.049Z,9.30
2019-03-25T05:47:33.553Z,9.50
2019-03-25T05:48:12.545Z,9.60
2019-03-25T05:49:15.545Z,9.30
2019-03-25T05:50:12.547Z,10.00
2019-03-25T05:53:05.288Z,9.70
2019-03-25T05:53:44.285Z,9.80
2019-03-25T05:54:48.284Z,9.40
2019-03-25T05:55:44.792Z,9.50
2019-03-25T05:57:05.791Z,9.30
2019-03-25T05:57:44.784Z,10.40
2019-03-25T05:58:45.289Z,10.40
2019-03-25T05:59:45.283Z,10.00
2019-03-25T06:00:49.288Z,10.20
2019-03-25T06:01:45.282Z,10.50
2019-03-25T06:02:45.783Z,9.90
2019-03-25T06:03:45.783Z,9.70
2019-03-25T06:04:45.787Z,10.30
2019-03-25T06:05:45.786Z,9.90
2019-03-25T06:06:51.971Z,10.70
2019-03-25T06:07:46.314Z,10.70
2019-03-25T06:08:46.283Z,11.10
2019-03-25T06:09:46.284Z,10.40
2019-03-25T06:10:46.781Z,10.90
2019-03-25T06:11:50.282Z,11.10
2019-03-25T06:12:46.785Z,10.70
2019-03-25T06:13:46.782Z,10.60
2019-03-25T06:14:47.285Z,11.70
2019-03-25T06:16:08.287Z,11.10
2019-03-25T06:16:47.282Z,10.90
2019-03-25T06:17:52.724Z,11.30
2019-03-25T06:18:47.782Z,11.60
2019-03-25T06:19:47.793Z,11.30
2019-03-25T06:20:47.783Z,12.40
2019-03-25T06:21:47.796Z,11.90
2019-03-25T06:22:47.792Z,12.40
2019-03-25T06:23:53.296Z,11.90
2019-03-25T06:24:48.281Z,12.50
2019-03-25T06:25:48.286Z,12.00
2019-03-25T06:26:48.288Z,13.00
2019-03-25T06:27:48.781Z,13.00
2019-03-25T06:29:13.787Z,13.20
2019-03-25T06:30:09.781Z,12.70
2019-03-25T06:30:48.781Z,13.20
2019-03-25T06:31:52.254Z,13.60
2019-03-25T06:33:12.676Z,11.20
2019-03-25T06:33:51.715Z,12.00
2019-03-25T06:34:52.792Z,12.60
2019-03-25T06:36:10.783Z,13.30
2019-03-25T06:36:49.783Z,12.60
2019-03-25T06:37:52.714Z,12.90
2019-03-25T06:38:49.798Z,13.30
2019-03-25T06:39:53.781Z,14.10
2019-03-25T06:40:50.279Z,13.70
2019-03-25T06:41:50.290Z,13.70
2019-03-25T06:42:50.284Z,13.30
2019-03-25T06:44:11.779Z,13.60
2019-03-25T06:44:53.792Z,13.30
2019-03-25T06:45:52.257Z,11.70
2019-03-25T06:46:50.788Z,11.10
2019-03-25T06:47:52.243Z,10.50
2019-03-25T06:50:26.466Z,8.80
2019-03-25T06:51:22.473Z,8.90
2019-03-25T06:52:27.407Z,9.70
2019-03-25T06:53:22.973Z,9.10
2019-03-25T06:54:22.973Z,10.30
2019-03-25T06:55:22.972Z,10.50
2019-03-25T06:56:47.479Z,10.40
2019-03-25T06:57:25.748Z,10.40
2019-03-25T06:58:23.470Z,10.00
2019-03-25T06:59:23.474Z,10.30
2019-03-25T07:00:37.972Z,9.60
2019-03-25T07:01:41.972Z,10.10
2019-03-25T07:02:23.973Z,10.60
2019-03-25T07:03:23.989Z,10.70
2019-03-25T07:04:24.476Z,10.80
2019-03-25T07:05:24.484Z,10.00
2019-03-25T07:06:24.472Z,10.60
2019-03-25T07:07:27.960Z,10.30
2019-03-25T07:08:24.983Z,10.40
2019-03-25T07:11:17.322Z,10.50
2019-03-25T07:11:56.366Z,11.30
2019-03-25T07:13:00.329Z,10.80
2019-03-25T07:13:56.831Z,10.90
2019-03-25T07:15:17.829Z,10.50
2019-03-25T07:15:56.832Z,10.90
2019-03-25T07:16:56.837Z,10.70
2019-03-25T07:17:57.330Z,10.90
2019-03-25T07:19:22.330Z,9.80
2019-03-25T07:19:57.340Z,9.50
2019-03-25T07:20:57.329Z,10.20
2019-03-25T07:21:57.834Z,10.70
2019-03-25T07:22:57.829Z,10.00
2019-03-25T07:23:57.829Z,10.10
2019-03-25T07:25:22.329Z,10.10
2019-03-25T07:25:59.763Z,9.00
2019-03-25T07:27:19.336Z,9.80
2019-03-25T07:27:58.344Z,9.10
2019-03-25T07:28:58.330Z,9.10
2019-03-25T07:30:02.328Z,11.10
2019-03-25T07:31:19.831Z,10.60
2019-03-25T07:31:58.826Z,10.50
2019-03-25T07:32:58.834Z,9.80
2019-03-25T07:33:59.330Z,10.10
2019-03-25T07:35:01.328Z,9.70
2019-03-25T07:36:02.712Z,10.70
2019-03-25T07:36:59.335Z,10.20
2019-03-25T07:37:59.828Z,10.50
2019-03-25T07:39:00.295Z,11.00
2019-03-25T07:39:59.830Z,10.30
2019-03-25T07:40:59.827Z,10.50
2019-03-25T07:42:03.328Z,11.90
2019-03-25T07:43:00.333Z,11.20
2019-03-25T07:44:00.334Z,10.90
2019-03-25T07:45:00.458Z,10.80
2019-03-25T07:46:21.827Z,10.80
2019-03-25T07:48:36.009Z,9.60
2019-03-25T07:49:36.019Z,11.10
2019-03-25T07:50:36.012Z,10.80
2019-03-25T07:51:36.512Z,11.70
2019-03-25T07:52:40.012Z,12.30
2019-03-25T07:53:38.513Z,11.60
2019-03-25T07:54:36.515Z,11.60
2019-03-25T07:55:37.026Z,11.30
2019-03-25T07:57:00.447Z,11.50
2019-03-25T07:57:43.715Z,11.40
2019-03-25T07:58:41.012Z,11.30
2019-03-25T07:59:37.532Z,10.20
2019-03-25T08:00:36.733Z,11.60
2019-03-25T08:01:37.539Z,10.60
2019-03-25T08:02:37.511Z,10.90
2019-03-25T08:03:37.527Z,10.00
2019-03-25T08:04:41.033Z,9.60
2019-03-25T08:05:37.285Z,10.10
2019-03-25T08:06:38.040Z,11.40
2019-03-25T08:07:38.020Z,11.60
2019-03-25T08:08:37.604Z,10.90
2019-03-25T08:09:43.959Z,10.70
2019-03-25T08:10:38.540Z,10.70
2019-03-25T08:11:38.510Z,10.50
2019-03-25T08:12:38.526Z,10.30
2019-03-25T08:13:39.026Z,10.20
2019-03-25T08:14:39.019Z,11.20
2019-03-25T08:16:03.588Z,12.20
2019-03-25T08:16:39.013Z,12.10
2019-03-25T08:17:39.509Z,11.90
2019-03-25T08:18:39.510Z,12.00
2019-03-25T08:19:39.508Z,12.10
2019-03-25T08:20:43.508Z,11.30
2019-03-25T08:21:40.012Z,11.20
2019-03-25T08:22:40.010Z,11.10
2019-03-25T08:23:40.011Z,10.10
2019-03-25T08:24:40.018Z,10.40
2019-03-25T08:25:40.513Z,10.60
2019-03-25T08:26:45.445Z,10.40
2019-03-25T08:27:41.965Z,10.50
2019-03-25T08:28:40.513Z,11.10
2019-03-25T08:29:40.520Z,8.90
2019-03-25T08:30:41.009Z,10.00
2019-03-25T08:31:41.005Z,10.20
2019-03-25T08:34:15.878Z,9.80
2019-03-25T08:35:36.885Z,9.10
2019-03-25T08:36:15.887Z,9.10
2019-03-25T08:37:37.391Z,8.80
2019-03-25T08:38:19.891Z,8.60
2019-03-25T08:39:37.384Z,8.40
2019-03-25T08:40:16.384Z,7.80
2019-03-25T08:41:17.837Z,8.10
2019-03-25T08:42:37.892Z,8.50
2019-03-25T08:43:41.392Z,9.30
2019-03-25T08:44:16.883Z,9.30
2019-03-25T08:45:16.883Z,8.40
2019-03-25T08:46:38.384Z,6.90
2019-03-25T08:47:17.385Z,6.70
2019-03-25T08:48:38.390Z,7.10
2019-03-25T08:50:54.624Z,7.40
2019-03-25T08:51:52.662Z,7.70
2019-03-25T08:54:28.396Z,6.60
2019-03-25T08:55:24.419Z,6.50
2019-03-25T08:57:58.076Z,5.60
2019-03-25T08:58:56.145Z,4.20
2019-03-25T08:59:59.366Z,3.30
2019-03-25T09:02:27.195Z,4.50
2019-03-25T09:03:27.859Z,5.40
2019-03-25T09:04:27.859Z,4.80
2019-03-25T09:05:31.859Z,4.00
2019-03-25T09:06:28.366Z,3.10
2019-03-25T09:07:28.359Z,2.70
2019-03-25T09:08:28.359Z,3.00
2019-03-25T09:09:27.951Z,2.70
2019-03-25T09:10:32.859Z,2.50
2019-03-25T09:11:28.859Z,2.80
2019-03-25T09:12:28.860Z,2.90
2019-03-25T09:13:29.353Z,3.50
2019-03-25T09:14:29.358Z,4.10
2019-03-25T09:15:32.856Z,3.80
2019-03-25T09:16:29.381Z,4.60
2019-03-25T09:17:28.951Z,4.10
2019-03-25T09:18:29.860Z,3.80
2019-03-25T09:19:29.865Z,3.90
2019-03-25T09:20:29.878Z,3.80
2019-03-25T09:21:33.858Z,3.90
2019-03-25T09:22:30.359Z,3.70
2019-03-25T09:23:30.358Z,3.50
2019-03-25T09:24:32.935Z,3.70
2019-03-25T09:25:29.889Z,3.90
2019-03-25T09:26:30.858Z,3.70
2019-03-25T09:27:35.292Z,4.40
2019-03-25T09:28:30.859Z,4.60
2019-03-25T09:29:30.858Z,4.20
2019-03-25T09:30:31.357Z,3.90
2019-03-25T09:31:36.688Z,3.90
2019-03-25T09:32:37.372Z,3.50
2019-03-25T09:33:31.357Z,3.80
2019-03-25T09:34:30.833Z,3.60
2019-03-25T09:37:24.060Z,3.70
2019-03-25T09:38:06.564Z,3.70
2019-03-25T09:39:04.506Z,3.90
2019-03-25T09:40:04.536Z,3.60
2019-03-25T09:41:03.578Z,3.50
2019-03-25T09:42:03.604Z,3.60
2019-03-25T09:43:04.134Z,4.00
2019-03-25T09:44:07.565Z,3.90
2019-03-25T09:46:56.427Z,3.70
2019-03-25T09:47:58.432Z,3.30
2019-03-25T09:48:35.441Z,3.40
2019-03-25T09:49:39.445Z,3.40
2019-03-25T09:50:56.933Z,3.30
2019-03-25T09:51:56.937Z,3.20
2019-03-25T09:52:56.949Z,2.80
2019-03-25T09:53:36.435Z,2.30
2019-03-25T09:55:00.940Z,1.90
2019-03-25T09:55:57.476Z,2.20
2019-03-25T09:56:57.434Z,2.00
2019-03-25T09:57:36.931Z,2.30
2019-03-25T09:58:37.023Z,1.80
2019-03-25T09:59:36.933Z,1.90
2019-03-25T10:00:39.737Z,2.00
2019-03-25T10:01:36.936Z,2.00
2019-03-25T10:02:36.934Z,2.30
2019-03-25T10:03:38.369Z,1.70
2019-03-25T10:04:36.642Z,1.80
2019-03-25T10:05:36.745Z,2.20
2019-03-25T10:06:41.431Z,1.80
2019-03-25T10:07:37.431Z,1.80
2019-03-25T10:08:39.940Z,1.80
2019-03-25T10:14:16.592Z,1.50
2019-03-25T10:15:16.603Z,1.70
2019-03-25T10:16:16.604Z,1.90
2019-03-25T10:18:51.840Z,1.60
2019-03-25T10:19:48.352Z,1.60
2019-03-25T10:20:48.349Z,1.70
2019-03-25T10:22:09.850Z,1.50
2019-03-25T10:22:48.849Z,1.60
2019-03-25T10:23:52.862Z,1.80
2019-03-25T10:24:48.849Z,2.00
2019-03-25T10:27:23.084Z,1.80
2019-03-25T10:28:21.093Z,1.90
2019-03-25T10:32:27.349Z,1.80
2019-03-25T10:33:27.360Z,1.80
2019-03-25T10:36:03.676Z,1.60
2019-03-25T10:37:03.697Z,1.20
2019-03-25T10:38:03.677Z,1.30
2019-03-25T10:39:04.177Z,1.80
2019-03-25T10:40:07.180Z,1.40
2019-03-25T10:41:04.177Z,1.40
2019-03-25T10:42:03.650Z,1.70
2019-03-25T10:43:10.677Z,1.40
2019-03-25T10:44:25.681Z,1.70
2019-03-25T10:45:09.611Z,1.60
2019-03-25T10:46:25.676Z,1.50
2019-03-25T10:48:36.417Z,1.60
2019-03-25T10:49:36.424Z,1.40
2019-03-25T10:50:38.930Z,1.80
2019-03-25T10:51:36.918Z,1.50
2019-03-25T10:52:36.926Z,1.30
2019-03-25T10:53:36.933Z,1.50
2019-03-25T10:54:37.021Z,1.20
2019-03-25T10:55:41.424Z,1.30
2019-03-25T10:56:37.423Z,1.40
2019-03-25T10:57:37.425Z,1.40
2019-03-25T10:58:37.445Z,1.20
2019-03-25T10:59:37.923Z,1.60
2019-03-25T11:02:34.183Z,1.50
2019-03-25T11:03:13.197Z,1.30
2019-03-25T11:04:13.201Z,1.50
2019-03-25T11:05:36.697Z,1.10
2019-03-25T11:06:17.194Z,1.40
2019-03-25T11:07:13.080Z,1.20
2019-03-25T11:08:13.692Z,1.30
2019-03-25T11:12:18.867Z,1.20
2019-03-25T11:13:16.873Z,1.20
2019-03-25T11:14:16.874Z,1.30
2019-03-25T11:15:38.374Z,1.00
2019-03-25T11:16:17.388Z,1.10
2019-03-25T11:17:41.874Z,0.90
2019-03-25T11:18:17.376Z,0.80
2019-03-25T11:20:49.109Z,1.00
2019-03-25T11:21:49.116Z,0.50
2019-03-25T11:23:13.616Z,0.70
2019-03-25T11:23:49.615Z,0.80
2019-03-25T11:24:49.615Z,0.80
2019-03-25T11:25:49.671Z,0.80
2019-03-25T11:26:49.618Z,0.50
2019-03-25T11:27:54.580Z,0.50
2019-03-25T11:28:50.115Z,0.70
2019-03-25T11:29:50.115Z,0.60
2019-03-25T11:30:50.115Z,0.50
2019-03-25T11:31:50.613Z,0.50
2019-03-25T11:34:46.399Z,0.50
2019-03-25T11:35:47.340Z,0.80
2019-03-25T11:36:46.406Z,0.50
2019-03-25T11:39:01.157Z,0.50
2019-03-25T11:39:57.654Z,0.50
2019-03-25T11:40:57.653Z,0.60
2019-03-25T11:41:57.648Z,0.70
2019-03-25T11:44:34.331Z,0.80
2019-03-25T11:45:29.422Z,1.00
2019-03-25T11:46:29.397Z,0.80
2019-03-25T11:47:29.897Z,1.10
2019-03-25T11:48:29.905Z,0.90
2019-03-25T11:49:54.897Z,0.90
2019-03-25T11:50:31.331Z,1.10
2019-03-25T11:54:36.879Z,1.10
2019-03-25T11:55:54.387Z,1.00
2019-03-25T11:58:05.139Z,1.00
2019-03-25T11:59:26.148Z,0.80
2019-03-25T12:00:07.869Z,0.90
2019-03-25T12:01:05.647Z,0.90
2019-03-25T12:02:05.649Z,1.10
2019-03-25T12:03:26.647Z,0.90
2019-03-25T12:04:26.648Z,0.90
2019-03-25T12:05:09.648Z,1.00
2019-03-25T12:06:06.148Z,0.70
2019-03-25T12:07:06.147Z,0.80
2019-03-25T12:08:27.148Z,0.70
2019-03-25T12:09:27.651Z,0.80
2019-03-25T12:10:31.148Z,0.70
2019-03-25T12:11:06.654Z,1.00
2019-03-25T12:12:06.649Z,0.90
2019-03-25T12:13:28.148Z,0.80
2019-03-25T12:14:09.583Z,0.90
2019-03-25T12:15:07.154Z,0.60
2019-03-25T12:16:11.165Z,0.70
2019-03-25T12:17:07.147Z,0.70
2019-03-25T12:18:28.648Z,0.70
2019-03-25T12:19:29.582Z,0.60
2019-03-25T12:20:07.647Z,0.50
2019-03-25T12:21:11.150Z,0.60
2019-03-25T12:22:12.878Z,0.50
2019-03-25T12:23:29.148Z,0.60
2019-03-25T12:24:08.148Z,0.60
2019-03-25T12:25:08.148Z,0.40
2019-03-25T12:26:12.150Z,0.60
2019-03-25T12:27:08.648Z,0.50
2019-03-25T12:28:08.658Z,0.60
2019-03-25T12:29:08.648Z,0.70
2019-03-25T12:30:10.606Z,0.50
2019-03-25T12:31:09.163Z,0.40
2019-03-25T12:34:00.117Z,0.40
2019-03-25T12:35:00.140Z,0.40
2019-03-25T12:39:23.361Z,0.40
2019-03-25T12:40:23.370Z,0.60
2019-03-25T12:42:59.104Z,0.50
2019-03-25T12:43:55.118Z,0.40
2019-03-25T12:44:55.124Z,0.60
2019-03-25T12:45:55.616Z,0.40
2019-03-25T12:46:55.616Z,0.60
2019-03-25T12:47:55.616Z,0.60
2019-03-25T12:48:59.116Z,0.70
2019-03-25T12:49:56.117Z,0.50
2019-03-25T12:50:56.152Z,0.60
2019-03-25T12:51:56.114Z,0.60
2019-03-25T12:52:56.118Z,0.70
2019-03-25T12:54:00.118Z,0.70
2019-03-25T12:56:27.996Z,0.60
2019-03-25T12:57:28.002Z,0.60
2019-03-25T12:58:28.003Z,0.80
2019-03-25T12:59:41.329Z,0.70
2019-03-25T13:02:00.385Z,0.50
2019-03-25T13:06:06.539Z,0.90
2019-03-25T13:07:06.548Z,0.50
2019-03-25T13:08:09.052Z,0.60
2019-03-25T13:09:07.052Z,1.00
2019-03-25T13:10:12.027Z,0.60
2019-03-25T13:11:07.053Z,0.60
2019-03-25T13:13:38.803Z,0.90
2019-03-25T13:14:38.810Z,0.60
2019-03-25T13:15:42.310Z,0.60
2019-03-25T13:16:39.310Z,0.50
2019-03-25T13:17:39.310Z,0.40
2019-03-25T13:18:39.313Z,0.40
2019-03-25T13:19:39.810Z,0.50
2019-03-25T13:20:43.311Z,0.50
2019-03-25T13:21:39.818Z,0.40
2019-03-25T13:22:39.815Z,0.60
2019-03-25T13:23:40.311Z,0.70
2019-03-25T13:24:40.316Z,0.60
2019-03-25T13:25:40.321Z,0.60
2019-03-25T13:26:44.310Z,0.60
2019-03-25T13:29:14.022Z,0.60
2019-03-25T13:30:11.487Z,0.70
2019-03-25T13:32:47.755Z,0.50
2019-03-25T13:33:43.814Z,0.60
2019-03-25T13:34:44.246Z,0.60
2019-03-25T13:35:44.248Z,0.60
2019-03-25T13:36:44.245Z,0.60
2019-03-25T13:37:44.246Z,0.50
2019-03-25T13:38:48.752Z,0.50
2019-03-25T13:39:44.744Z,0.40
2019-03-25T13:40:44.746Z,0.60
2019-03-25T13:41:44.747Z,0.50
2019-03-25T13:42:45.256Z,0.50
2019-03-25T13:44:08.750Z,0.40
2019-03-25T13:44:45.245Z,0.40
2019-03-25T13:45:45.262Z,0.60
2019-03-25T13:46:45.746Z,0.40
2019-03-25T13:47:45.748Z,0.50
2019-03-25T13:48:45.755Z,0.50
2019-03-25T13:49:49.748Z,0.60
2019-03-25T13:50:46.247Z,0.60
2019-03-25T13:51:46.248Z,0.60
2019-03-25T13:52:46.248Z,0.60
2019-03-25T13:53:46.253Z,0.60
2019-03-25T13:54:46.749Z,0.80
2019-03-25T13:55:50.747Z,0.70
2019-03-25T13:56:46.747Z,0.80
2019-03-25T13:57:46.747Z,0.70
2019-03-25T13:59:22.252Z,0.80
2019-03-25T13:59:47.251Z,0.70
2019-03-25T14:00:47.248Z,0.80
2019-03-25T14:02:13.754Z,0.90
2019-03-25T14:02:47.759Z,0.80
2019-03-25T14:03:47.748Z,0.70
2019-03-25T14:04:47.748Z,0.70
2019-03-25T14:05:47.792Z,0.70
2019-03-25T14:06:51.748Z,0.70
2019-03-25T14:08:09.251Z,0.60
2019-03-25T14:08:48.246Z,0.60
2019-03-25T14:09:48.250Z,0.60
2019-03-25T14:10:49.715Z,0.70
2019-03-25T14:12:13.251Z,0.50
2019-03-25T14:12:48.752Z,0.70
2019-03-25T14:13:49.645Z,0.60
2019-03-25T14:14:49.254Z,0.50
2019-03-25T14:16:10.249Z,0.60
2019-03-25T14:16:49.249Z,0.50
2019-03-25T14:18:13.751Z,0.60
2019-03-25T14:18:49.748Z,0.70
2019-03-25T14:19:49.755Z,0.70
2019-03-25T14:20:49.753Z,0.70
2019-03-25T14:21:49.749Z,0.70
2019-03-25T14:23:16.711Z,0.70
2019-03-25T14:23:50.259Z,0.70
2019-03-25T14:24:50.255Z,0.60
2019-03-25T14:25:50.252Z,0.60
2019-03-25T14:26:50.748Z,0.80
2019-03-25T14:27:50.753Z,0.60
2019-03-25T14:28:53.320Z,0.70
2019-03-25T14:30:14.877Z,0.60
2019-03-25T14:30:50.225Z,0.60
2019-03-25T14:31:51.252Z,0.70
2019-03-25T14:32:51.253Z,0.80
2019-03-25T14:33:55.254Z,0.60
2019-03-25T14:34:51.260Z,0.60
2019-03-25T14:35:51.786Z,0.70
2019-03-25T14:36:51.750Z,0.90
2019-03-25T14:37:51.749Z,0.70
2019-03-25T14:38:51.750Z,0.70
2019-03-25T14:41:26.597Z,0.60